SHT2K EGCC-EGLL
Flight info
| Callsign | SHT2K |
|---|---|
| Flight time | 0h 31m |
| Altitude | 19000 |
| Route | SANBA N859 HON |
| Aircraft | A320/M-SDE3FGHIRWY/LB1 |
Departure
| Time | 2026-05-07 19:31 |
|---|---|
| Airport | Manchester Airport (EGCC) |
Arrival
| Time | 2026-05-07 20:02 |
|---|---|
| Airport | London Heathrow Airport (EGLL) |
| Time | Latitude | Longitude | Altitude | Speed | Heading |
|---|---|---|---|---|---|
| 2026-05-07 19:11 | 53.36834 | -2.28880 | 255 ft | 0 kts | 135° |
| 2026-05-07 19:18 | 53.36838 | -2.28888 | 255 ft | 4 kts | 137° |
| 2026-05-07 19:18 | 53.36860 | -2.28913 | 255 ft | 4 kts | 166° |
| 2026-05-07 19:18 | 53.36883 | -2.28911 | 255 ft | 4 kts | 217° |
| 2026-05-07 19:19 | 53.36891 | -2.28899 | 255 ft | 1 kts | 225° |
| 2026-05-07 19:19 | 53.36892 | -2.28898 | 255 ft | 0 kts | 225° |
| 2026-05-07 19:22 | 53.36884 | -2.28911 | 255 ft | 4 kts | 225° |
| 2026-05-07 19:22 | 53.36856 | -2.28958 | 255 ft | 7 kts | 224° |
| 2026-05-07 19:22 | 53.36813 | -2.29016 | 255 ft | 8 kts | 207° |
| 2026-05-07 19:22 | 53.36752 | -2.29042 | 255 ft | 9 kts | 176° |
| 2026-05-07 19:23 | 53.36705 | -2.28967 | 255 ft | 10 kts | 136° |
| 2026-05-07 19:23 | 53.36648 | -2.28889 | 255 ft | 11 kts | 147° |
| 2026-05-07 19:23 | 53.36587 | -2.28803 | 255 ft | 12 kts | 121° |
| 2026-05-07 19:23 | 53.36537 | -2.28683 | 255 ft | 13 kts | 133° |
| 2026-05-07 19:24 | 53.36470 | -2.28571 | 255 ft | 14 kts | 136° |
| 2026-05-07 19:24 | 53.36407 | -2.28437 | 255 ft | 15 kts | 110° |
| 2026-05-07 19:24 | 53.36349 | -2.28284 | 255 ft | 16 kts | 136° |
| 2026-05-07 19:24 | 53.36262 | -2.28151 | 255 ft | 17 kts | 138° |
| 2026-05-07 19:25 | 53.36176 | -2.28000 | 255 ft | 18 kts | 131° |
| 2026-05-07 19:25 | 53.36074 | -2.27859 | 255 ft | 19 kts | 144° |
| 2026-05-07 19:25 | 53.35961 | -2.27737 | 255 ft | 18 kts | 162° |
| 2026-05-07 19:25 | 53.35835 | -2.27730 | 253 ft | 18 kts | 181° |
| 2026-05-07 19:26 | 53.35818 | -2.27728 | 252 ft | 3 kts | 169° |
| 2026-05-07 19:26 | 53.35790 | -2.27690 | 251 ft | 7 kts | 134° |
| 2026-05-07 19:26 | 53.35724 | -2.27635 | 248 ft | 14 kts | 162° |
| 2026-05-07 19:26 | 53.35633 | -2.27540 | 246 ft | 10 kts | 139° |
| 2026-05-07 19:27 | 53.35618 | -2.27453 | 245 ft | 9 kts | 54° |
| 2026-05-07 19:27 | 53.35655 | -2.27380 | 251 ft | 7 kts | 50° |
| 2026-05-07 19:27 | 53.35698 | -2.27293 | 255 ft | 13 kts | 51° |
| 2026-05-07 19:27 | 53.35770 | -2.27143 | 255 ft | 18 kts | 52° |
| 2026-05-07 19:28 | 53.35846 | -2.26958 | 256 ft | 20 kts | 59° |
| 2026-05-07 19:28 | 53.35928 | -2.26767 | 256 ft | 19 kts | 56° |
| 2026-05-07 19:28 | 53.36009 | -2.26590 | 256 ft | 18 kts | 52° |
| 2026-05-07 19:28 | 53.36072 | -2.26460 | 256 ft | 12 kts | 51° |
| 2026-05-07 19:29 | 53.36120 | -2.26361 | 255 ft | 5 kts | 51° |
| 2026-05-07 19:29 | 53.36142 | -2.26296 | 255 ft | 8 kts | 77° |
| 2026-05-07 19:29 | 53.36114 | -2.26212 | 255 ft | 10 kts | 143° |
| 2026-05-07 19:29 | 53.36066 | -2.26154 | 257 ft | 8 kts | 142° |
| 2026-05-07 19:30 | 53.36020 | -2.26159 | 259 ft | 8 kts | 226° |
| 2026-05-07 19:30 | 53.35894 | -2.26423 | 268 ft | 61 kts | 231° |
| 2026-05-07 19:30 | 53.35495 | -2.27246 | 249 ft | 121 kts | 231° |
| 2026-05-07 19:30 | 53.34876 | -2.28530 | 405 ft | 150 kts | 232° |
| 2026-05-07 19:31 | 53.34275 | -2.29884 | 1121 ft | 143 kts | 231° |
| 2026-05-07 19:31 | 53.33648 | -2.31246 | 1639 ft | 154 kts | 229° |
| 2026-05-07 19:31 | 53.32990 | -2.32796 | 1947 ft | 174 kts | 229° |
| 2026-05-07 19:31 | 53.32371 | -2.34688 | 2226 ft | 205 kts | 256° |
| 2026-05-07 19:32 | 53.32514 | -2.37261 | 2472 ft | 244 kts | 279° |
| 2026-05-07 19:32 | 53.32884 | -2.40126 | 2595 ft | 255 kts | 271° |
| 2026-05-07 19:32 | 53.32500 | -2.42928 | 2738 ft | 248 kts | 234° |
| 2026-05-07 19:32 | 53.31207 | -2.44696 | 2891 ft | 243 kts | 200° |
| 2026-05-07 19:33 | 53.29557 | -2.45347 | 3069 ft | 244 kts | 187° |
| 2026-05-07 19:33 | 53.27855 | -2.45490 | 3249 ft | 246 kts | 173° |
| 2026-05-07 19:33 | 53.26271 | -2.44512 | 3526 ft | 252 kts | 149° |
| 2026-05-07 19:33 | 53.24797 | -2.42909 | 4543 ft | 253 kts | 151° |
| 2026-05-07 19:34 | 53.23256 | -2.41455 | 5521 ft | 256 kts | 154° |
| 2026-05-07 19:34 | 53.21662 | -2.40060 | 6437 ft | 262 kts | 155° |
| 2026-05-07 19:34 | 53.20029 | -2.38664 | 7299 ft | 266 kts | 156° |
| 2026-05-07 19:34 | 53.18354 | -2.37238 | 7840 ft | 272 kts | 156° |
| 2026-05-07 19:35 | 53.16660 | -2.35783 | 8291 ft | 275 kts | 155° |
| 2026-05-07 19:35 | 53.14956 | -2.34308 | 9237 ft | 277 kts | 155° |
| 2026-05-07 19:35 | 53.13236 | -2.32813 | 10105 ft | 281 kts | 155° |
| 2026-05-07 19:35 | 53.11432 | -2.31249 | 10461 ft | 303 kts | 155° |
| 2026-05-07 19:36 | 53.09490 | -2.29568 | 10694 ft | 326 kts | 155° |
| 2026-05-07 19:36 | 53.07439 | -2.27785 | 11223 ft | 336 kts | 155° |
| 2026-05-07 19:36 | 53.05380 | -2.25988 | 11920 ft | 341 kts | 155° |
| 2026-05-07 19:36 | 53.03269 | -2.24146 | 12649 ft | 344 kts | 154° |
| 2026-05-07 19:37 | 53.01134 | -2.22286 | 13385 ft | 348 kts | 154° |
| 2026-05-07 19:37 | 52.98978 | -2.20408 | 14078 ft | 352 kts | 154° |
| 2026-05-07 19:37 | 52.96797 | -2.18514 | 14695 ft | 356 kts | 154° |
| 2026-05-07 19:37 | 52.94591 | -2.16600 | 15316 ft | 360 kts | 154° |
| 2026-05-07 19:38 | 52.92363 | -2.14668 | 15928 ft | 363 kts | 154° |
| 2026-05-07 19:38 | 52.90114 | -2.12724 | 16551 ft | 366 kts | 154° |
| 2026-05-07 19:38 | 52.87842 | -2.10764 | 17177 ft | 369 kts | 154° |
| 2026-05-07 19:38 | 52.85548 | -2.08790 | 17799 ft | 373 kts | 154° |
| 2026-05-07 19:39 | 52.83239 | -2.06804 | 18410 ft | 376 kts | 154° |
| 2026-05-07 19:39 | 52.80901 | -2.04797 | 18869 ft | 380 kts | 154° |
| 2026-05-07 19:39 | 52.78553 | -2.02784 | 19004 ft | 382 kts | 155° |
| 2026-05-07 19:39 | 52.76134 | -2.00717 | 19034 ft | 400 kts | 154° |
| 2026-05-07 19:40 | 52.73636 | -1.98580 | 19044 ft | 407 kts | 154° |
| 2026-05-07 19:40 | 52.71116 | -1.96419 | 19045 ft | 409 kts | 154° |
| 2026-05-07 19:40 | 52.68585 | -1.94247 | 19043 ft | 410 kts | 154° |
| 2026-05-07 19:40 | 52.66086 | -1.92102 | 19043 ft | 410 kts | 154° |
| 2026-05-07 19:41 | 52.63549 | -1.89933 | 19042 ft | 410 kts | 154° |
| 2026-05-07 19:41 | 52.61015 | -1.87776 | 19048 ft | 410 kts | 154° |
| 2026-05-07 19:41 | 52.58475 | -1.85621 | 19054 ft | 410 kts | 154° |
| 2026-05-07 19:41 | 52.55941 | -1.83472 | 19053 ft | 410 kts | 154° |
| 2026-05-07 19:42 | 52.53407 | -1.81324 | 19058 ft | 410 kts | 154° |
| 2026-05-07 19:42 | 52.50870 | -1.79179 | 19049 ft | 410 kts | 155° |
| 2026-05-07 19:42 | 52.48331 | -1.77033 | 19054 ft | 410 kts | 155° |
| 2026-05-07 19:42 | 52.45789 | -1.74890 | 19052 ft | 411 kts | 155° |
| 2026-05-07 19:43 | 52.43246 | -1.72749 | 19059 ft | 411 kts | 155° |
| 2026-05-07 19:43 | 52.40737 | -1.70638 | 19059 ft | 411 kts | 155° |
| 2026-05-07 19:43 | 52.38180 | -1.68487 | 19059 ft | 418 kts | 155° |
| 2026-05-07 19:43 | 52.35612 | -1.66080 | 19058 ft | 432 kts | 147° |
| 2026-05-07 19:44 | 52.33248 | -1.62980 | 19056 ft | 437 kts | 141° |
| 2026-05-07 19:44 | 52.30951 | -1.59719 | 19054 ft | 438 kts | 141° |
| 2026-05-07 19:44 | 52.28647 | -1.56452 | 19078 ft | 438 kts | 141° |
| 2026-05-07 19:44 | 52.26340 | -1.53192 | 19072 ft | 438 kts | 141° |
| 2026-05-07 19:45 | 52.24031 | -1.49946 | 19084 ft | 438 kts | 141° |
| 2026-05-07 19:45 | 52.21718 | -1.46705 | 19078 ft | 438 kts | 141° |
| 2026-05-07 19:45 | 52.19437 | -1.43517 | 19084 ft | 438 kts | 141° |
| 2026-05-07 19:45 | 52.17113 | -1.40277 | 19084 ft | 438 kts | 141° |
| 2026-05-07 19:46 | 52.14800 | -1.37052 | 19082 ft | 438 kts | 141° |
| 2026-05-07 19:46 | 52.12479 | -1.33816 | 19079 ft | 438 kts | 141° |
| 2026-05-07 19:46 | 52.10164 | -1.30590 | 19076 ft | 438 kts | 141° |
| 2026-05-07 19:46 | 52.07852 | -1.27372 | 19068 ft | 438 kts | 141° |
| 2026-05-07 19:47 | 52.05536 | -1.24155 | 19066 ft | 438 kts | 141° |
| 2026-05-07 19:47 | 52.03218 | -1.20942 | 19047 ft | 437 kts | 141° |
| 2026-05-07 19:47 | 52.00923 | -1.17768 | 18469 ft | 431 kts | 141° |
| 2026-05-07 19:47 | 51.98692 | -1.14678 | 17464 ft | 429 kts | 141° |
| 2026-05-07 19:48 | 51.96418 | -1.11528 | 16540 ft | 425 kts | 141° |
| 2026-05-07 19:48 | 51.94181 | -1.08437 | 15726 ft | 419 kts | 141° |
| 2026-05-07 19:48 | 51.91969 | -1.05394 | 15206 ft | 417 kts | 141° |
| 2026-05-07 19:48 | 51.89753 | -1.02361 | 15024 ft | 416 kts | 141° |
| 2026-05-07 19:49 | 51.87566 | -0.99366 | 14503 ft | 408 kts | 141° |
| 2026-05-07 19:49 | 51.85518 | -0.96275 | 13916 ft | 395 kts | 130° |
| 2026-05-07 19:49 | 51.84150 | -0.92581 | 13299 ft | 373 kts | 119° |
| 2026-05-07 19:49 | 51.83012 | -0.88926 | 12660 ft | 354 kts | 118° |
| 2026-05-07 19:50 | 51.81946 | -0.85410 | 12034 ft | 339 kts | 117° |
| 2026-05-07 19:50 | 51.80936 | -0.82051 | 11427 ft | 327 kts | 117° |
| 2026-05-07 19:50 | 51.79967 | -0.78840 | 10880 ft | 317 kts | 118° |
| 2026-05-07 19:50 | 51.79023 | -0.75738 | 10629 ft | 299 kts | 118° |
| 2026-05-07 19:51 | 51.78128 | -0.72811 | 10382 ft | 283 kts | 118° |
| 2026-05-07 19:51 | 51.77270 | -0.70020 | 10141 ft | 274 kts | 118° |
| 2026-05-07 19:51 | 51.76422 | -0.67277 | 9881 ft | 271 kts | 118° |
| 2026-05-07 19:51 | 51.75582 | -0.64568 | 9622 ft | 269 kts | 118° |
| 2026-05-07 19:52 | 51.74750 | -0.61887 | 9411 ft | 264 kts | 118° |
| 2026-05-07 19:52 | 51.73941 | -0.59270 | 9282 ft | 258 kts | 118° |
| 2026-05-07 19:52 | 51.72986 | -0.56874 | 9140 ft | 252 kts | 138° |
| 2026-05-07 19:52 | 51.71502 | -0.55502 | 9009 ft | 246 kts | 169° |
| 2026-05-07 19:53 | 51.69807 | -0.55213 | 8879 ft | 245 kts | 181° |
| 2026-05-07 19:53 | 51.68177 | -0.55776 | 8739 ft | 241 kts | 210° |
| 2026-05-07 19:53 | 51.66812 | -0.57344 | 8612 ft | 241 kts | 223° |
| 2026-05-07 19:53 | 51.65729 | -0.59391 | 8484 ft | 241 kts | 234° |
| 2026-05-07 19:54 | 51.64765 | -0.61614 | 8281 ft | 240 kts | 236° |
| 2026-05-07 19:54 | 51.63838 | -0.63803 | 7993 ft | 239 kts | 236° |
| 2026-05-07 19:54 | 51.62906 | -0.66017 | 7693 ft | 239 kts | 236° |
| 2026-05-07 19:54 | 51.61975 | -0.68226 | 7421 ft | 238 kts | 236° |
| 2026-05-07 19:55 | 51.61048 | -0.70427 | 7138 ft | 237 kts | 236° |
| 2026-05-07 19:55 | 51.60124 | -0.72616 | 6814 ft | 235 kts | 236° |
| 2026-05-07 19:55 | 51.59201 | -0.74801 | 6463 ft | 237 kts | 236° |
| 2026-05-07 19:55 | 51.58274 | -0.76987 | 6158 ft | 236 kts | 234° |
| 2026-05-07 19:56 | 51.57058 | -0.78709 | 5851 ft | 234 kts | 204° |
| 2026-05-07 19:56 | 51.55490 | -0.79288 | 5344 ft | 233 kts | 184° |
| 2026-05-07 19:56 | 51.53870 | -0.79442 | 4840 ft | 235 kts | 181° |
| 2026-05-07 19:56 | 51.52243 | -0.79564 | 4588 ft | 231 kts | 181° |
| 2026-05-07 19:57 | 51.50662 | -0.79656 | 4453 ft | 222 kts | 176° |
| 2026-05-07 19:57 | 51.49251 | -0.78940 | 4406 ft | 212 kts | 142° |
| 2026-05-07 19:57 | 51.48255 | -0.77190 | 4060 ft | 215 kts | 123° |
| 2026-05-07 19:57 | 51.47672 | -0.74977 | 3489 ft | 218 kts | 98° |
| 2026-05-07 19:58 | 51.47626 | -0.72568 | 3102 ft | 213 kts | 89° |
| 2026-05-07 19:58 | 51.47641 | -0.70230 | 2792 ft | 205 kts | 90° |
| 2026-05-07 19:58 | 51.47654 | -0.67989 | 2520 ft | 197 kts | 90° |
| 2026-05-07 19:58 | 51.47666 | -0.65844 | 2270 ft | 187 kts | 91° |
| 2026-05-07 19:59 | 51.47677 | -0.63818 | 2014 ft | 177 kts | 91° |
| 2026-05-07 19:59 | 51.47687 | -0.61877 | 1765 ft | 170 kts | 91° |
| 2026-05-07 19:59 | 51.47696 | -0.60019 | 1546 ft | 164 kts | 91° |
| 2026-05-07 19:59 | 51.47705 | -0.58210 | 1313 ft | 157 kts | 91° |
| 2026-05-07 20:00 | 51.47714 | -0.56545 | 1104 ft | 143 kts | 91° |
| 2026-05-07 20:00 | 51.47721 | -0.54993 | 910 ft | 138 kts | 91° |
| 2026-05-07 20:00 | 51.47727 | -0.53469 | 726 ft | 135 kts | 91° |
| 2026-05-07 20:00 | 51.47735 | -0.51976 | 552 ft | 133 kts | 91° |
| 2026-05-07 20:01 | 51.47742 | -0.50499 | 389 ft | 132 kts | 91° |
| 2026-05-07 20:01 | 51.47750 | -0.49033 | 199 ft | 131 kts | 91° |
| 2026-05-07 20:01 | 51.47752 | -0.47598 | 92 ft | 120 kts | 92° |
| 2026-05-07 20:01 | 51.47756 | -0.46466 | 92 ft | 78 kts | 90° |
| 2026-05-07 20:02 | 51.47759 | -0.45837 | 87 ft | 46 kts | 90° |
| 2026-05-07 20:02 | 51.47754 | -0.45538 | 88 ft | 17 kts | 105° |
| 2026-05-07 20:02 | 51.47660 | -0.45468 | 86 ft | 13 kts | 181° |
| 2026-05-07 20:02 | 51.47631 | -0.45470 | 86 ft | 1 kts | 181° |
| 2026-05-07 20:03 | 51.47613 | -0.45472 | 86 ft | 4 kts | 185° |
| 2026-05-07 20:03 | 51.47593 | -0.45504 | 87 ft | 5 kts | 266° |
| 2026-05-07 20:03 | 51.47596 | -0.45580 | 88 ft | 8 kts | 274° |
| 2026-05-07 20:03 | 51.47596 | -0.45687 | 86 ft | 11 kts | 269° |
| 2026-05-07 20:04 | 51.47596 | -0.45823 | 87 ft | 14 kts | 270° |
| 2026-05-07 20:04 | 51.47596 | -0.45990 | 86 ft | 16 kts | 270° |
| 2026-05-07 20:04 | 51.47594 | -0.46188 | 86 ft | 19 kts | 268° |
| 2026-05-07 20:04 | 51.47593 | -0.46417 | 87 ft | 22 kts | 268° |
| 2026-05-07 20:05 | 51.47592 | -0.46680 | 86 ft | 25 kts | 268° |
| 2026-05-07 20:05 | 51.47584 | -0.46971 | 87 ft | 25 kts | 267° |
| 2026-05-07 20:05 | 51.47580 | -0.47215 | 90 ft | 17 kts | 270° |
| 2026-05-07 20:05 | 51.47581 | -0.47415 | 89 ft | 19 kts | 270° |
| 2026-05-07 20:06 | 51.47581 | -0.47616 | 90 ft | 11 kts | 269° |
| 2026-05-07 20:06 | 51.47580 | -0.47712 | 90 ft | 9 kts | 269° |
| 2026-05-07 20:06 | 51.47579 | -0.47836 | 90 ft | 12 kts | 269° |
| 2026-05-07 20:06 | 51.47579 | -0.47934 | 88 ft | 14 kts | 270° |
| 2026-05-07 20:07 | 51.47580 | -0.48170 | 89 ft | 18 kts | 270° |
| 2026-05-07 20:07 | 51.47579 | -0.48346 | 88 ft | 9 kts | 269° |
| 2026-05-07 20:07 | 51.47578 | -0.48419 | 90 ft | 11 kts | 267° |
| 2026-05-07 20:07 | 51.47520 | -0.48476 | 86 ft | 13 kts | 181° |
| 2026-05-07 20:08 | 51.47486 | -0.48599 | 88 ft | 15 kts | 270° |
| 2026-05-07 20:08 | 51.47487 | -0.48767 | 89 ft | 10 kts | 271° |
| 2026-05-07 20:08 | 51.47487 | -0.48779 | 88 ft | 0 kts | 271° |
| 2026-05-07 20:09 | 51.47485 | -0.48802 | 88 ft | 6 kts | 256° |
| 2026-05-07 20:09 | 51.47426 | -0.48828 | 86 ft | 11 kts | 179° |
| 2026-05-07 20:09 | 51.47407 | -0.48829 | 86 ft | 0 kts | 181° |